createdAt,value
2018-06-11T00:00:15.672Z,148320.03
2018-06-11T00:02:46.642Z,148317.55
2018-06-11T00:05:17.679Z,148317.55
2018-06-11T00:07:49.515Z,148301.37
2018-06-11T00:10:20.484Z,148316.30
2018-06-11T00:12:52.292Z,148308.84
2018-06-11T00:15:23.461Z,148327.50
2018-06-11T00:20:30.567Z,148320.03
2018-06-11T00:23:01.877Z,148331.22
2018-06-11T00:25:33.662Z,148383.50
2018-06-11T00:28:04.624Z,148433.31
2018-06-11T00:30:35.687Z,148470.67
2018-06-11T00:33:06.630Z,148498.09
2018-06-11T00:35:38.633Z,148521.78
2018-06-11T00:38:09.729Z,148523.03
2018-06-11T00:40:41.966Z,148528.00
2018-06-11T00:43:13.839Z,148540.50
2018-06-11T00:45:45.903Z,148540.50
2018-06-11T00:48:17.076Z,148535.47
2018-06-11T00:50:48.816Z,148516.81
2018-06-11T00:53:19.754Z,148510.58
2018-06-11T00:56:02.216Z,148526.75
2018-06-11T00:58:33.002Z,148530.50
2018-06-11T01:01:03.938Z,148528.00
2018-06-11T01:03:34.672Z,148530.50
2018-06-11T01:06:08.138Z,148546.72
2018-06-11T01:08:39.233Z,148538.00
2018-06-11T01:11:10.880Z,148521.78
2018-06-11T01:13:41.740Z,148544.22
2018-06-11T01:16:12.687Z,148520.53
2018-06-11T01:18:43.755Z,148547.97
2018-06-11T01:21:16.215Z,148557.92
2018-06-11T01:23:47.162Z,148535.47
2018-06-11T01:26:18.052Z,148529.25
2018-06-11T01:28:49.025Z,148544.22
2018-06-11T01:31:20.337Z,148523.03
2018-06-11T01:33:51.042Z,148491.87
2018-06-11T01:36:22.108Z,148442.06
2018-06-11T01:38:53.029Z,148419.62
2018-06-11T01:41:24.060Z,148422.11
2018-06-11T01:43:54.907Z,148439.53
2018-06-11T01:46:26.022Z,148474.41
2018-06-11T01:48:57.077Z,148493.11
2018-06-11T01:51:27.922Z,148498.09
2018-06-11T01:53:58.877Z,148498.09
2018-06-11T01:56:29.667Z,148511.83
2018-06-11T01:59:00.643Z,148513.06
2018-06-11T02:01:31.725Z,148526.75
2018-06-11T02:04:02.654Z,148532.98
2018-06-11T02:06:34.202Z,148532.98
2018-06-11T02:09:05.406Z,148536.77
2018-06-11T02:11:36.215Z,148519.30
2018-06-11T02:14:07.080Z,148526.75
2018-06-11T02:16:38.239Z,148519.30
2018-06-11T02:19:09.080Z,148503.06
2018-06-11T02:21:39.924Z,148508.09
2018-06-11T02:24:10.767Z,148503.06
2018-06-11T02:26:41.604Z,148528.00
2018-06-11T02:29:12.616Z,148525.52
2018-06-11T02:31:44.575Z,148532.98
2018-06-11T02:34:15.663Z,148564.14
2018-06-11T02:36:49.116Z,148562.89
2018-06-11T02:39:20.236Z,148571.61
2018-06-11T02:41:51.069Z,148589.08
2018-06-11T02:44:22.093Z,148597.78
2018-06-11T02:46:53.119Z,148615.22
2018-06-11T02:49:24.024Z,148623.92
2018-06-11T02:58:50.495Z,148675.00
2018-06-11T03:01:21.398Z,148714.89
2018-06-11T03:03:54.250Z,148757.31
2018-06-11T03:06:25.375Z,148820.92
2018-06-11T03:08:56.617Z,148910.64
2018-06-11T03:11:28.373Z,149044.14
2018-06-11T03:13:59.418Z,149181.44
2018-06-11T03:16:30.468Z,149268.81
2018-06-11T03:19:01.338Z,149382.44
2018-06-11T03:21:32.314Z,149461.13
2018-06-11T03:24:04.276Z,149551.09
2018-06-11T03:26:35.316Z,149643.55
2018-06-11T03:29:06.269Z,149776.06
2018-06-11T03:31:37.126Z,149846.09
2018-06-11T03:34:09.257Z,149884.86
2018-06-11T03:36:40.301Z,149963.66
2018-06-11T03:39:11.215Z,150107.53
2018-06-11T03:41:42.936Z,150232.66
2018-06-11T03:44:14.248Z,150376.66
2018-06-11T03:46:45.287Z,150312.78
2018-06-11T03:49:17.205Z,150371.64
2018-06-11T03:51:48.290Z,150443.03
2018-06-11T03:56:55.184Z,150598.34
2018-06-11T03:59:26.235Z,150781.31
2018-06-11T04:01:59.177Z,150855.28
2018-06-11T04:04:30.235Z,150856.53
2018-06-11T04:07:02.381Z,151035.86
2018-06-11T04:09:33.722Z,151058.45
2018-06-11T04:12:05.377Z,151301.89
2018-06-11T04:14:36.476Z,151353.33
2018-06-11T04:19:43.226Z,151666.02
2018-06-11T04:22:14.305Z,151630.84
2018-06-11T04:24:45.345Z,151510.30
2018-06-11T04:27:16.325Z,151367.16
2018-06-11T04:29:47.207Z,151398.56
2018-06-11T04:32:19.740Z,151586.91
2018-06-11T04:34:50.714Z,151939.97
2018-06-11T04:39:58.210Z,152044.31
2018-06-11T04:42:29.208Z,152005.34
2018-06-11T04:45:00.494Z,151732.61
2018-06-11T04:47:31.311Z,151667.28
2018-06-11T04:50:03.027Z,151838.16
2018-06-11T04:52:33.929Z,151868.33
2018-06-11T04:55:05.662Z,151766.53
2018-06-11T04:57:36.690Z,151858.25
2018-06-11T05:00:08.592Z,151791.69
2018-06-11T05:02:39.372Z,151735.13
2018-06-11T05:07:48.395Z,152269.41
2018-06-11T05:10:19.351Z,152456.92
2018-06-11T05:12:53.901Z,152113.48
2018-06-11T05:15:24.747Z,152523.62
2018-06-11T05:20:33.108Z,152234.19
2018-06-11T05:23:04.147Z,151967.64
2018-06-11T05:25:36.082Z,152115.98
2018-06-11T05:28:07.133Z,152443.09
2018-06-11T05:30:37.960Z,151990.23
2018-06-11T05:33:11.663Z,152105.94
2018-06-11T05:35:45.834Z,152400.33
2018-06-11T05:38:16.902Z,152344.94
2018-06-11T05:40:48.263Z,152876.22
2018-06-11T05:43:19.344Z,153143.30
2018-06-11T05:45:50.272Z,152793.06
2018-06-11T05:48:21.270Z,152118.50
2018-06-11T05:50:54.209Z,152144.92
2018-06-11T05:53:25.215Z,151892.19
2018-06-11T05:55:56.261Z,152463.20
2018-06-11T05:58:27.717Z,152567.67
2018-06-11T06:00:58.761Z,152449.38
2018-06-11T06:03:29.889Z,152232.94
2018-06-11T06:06:00.891Z,151991.50
2018-06-11T06:08:31.811Z,152427.97
2018-06-11T06:11:03.025Z,152976.95
2018-06-11T06:13:34.010Z,153181.09
2018-06-11T06:18:41.586Z,153660.34
2018-06-11T06:21:12.571Z,153907.66
2018-06-11T06:23:44.348Z,153700.70
2018-06-11T06:26:15.419Z,154148.80
2018-06-11T06:28:49.603Z,154306.72
2018-06-11T06:31:20.846Z,154775.61
2018-06-11T06:33:51.940Z,154780.66
2018-06-11T06:36:22.977Z,155079.09
2018-06-11T06:38:54.015Z,154191.77
2018-06-11T06:41:25.115Z,153515.23
2018-06-11T06:43:58.773Z,154463.34
2018-06-11T06:46:30.610Z,154885.59
2018-06-11T06:49:02.345Z,154587.25
2018-06-11T06:51:33.314Z,153691.88
2018-06-11T06:54:04.372Z,154395.17
2018-06-11T06:56:36.968Z,154703.50
2018-06-11T07:01:44.096Z,154957.66
2018-06-11T07:04:14.662Z,154470.97
2018-06-11T07:06:47.109Z,154589.78
2018-06-11T07:09:17.655Z,154789.48
2018-06-11T07:11:48.364Z,154829.94
2018-06-11T07:14:18.949Z,154974.12
2018-06-11T07:16:52.363Z,155109.41
2018-06-11T07:19:22.839Z,153908.92
2018-06-11T07:21:53.406Z,154458.31
2018-06-11T07:24:23.967Z,154733.84
2018-06-11T07:26:55.353Z,154767.98
2018-06-11T07:29:25.922Z,154851.41
2018-06-11T07:31:57.546Z,154580.89
2018-06-11T07:34:28.034Z,153791.56
2018-06-11T07:36:59.046Z,154040.22
2018-06-11T07:39:29.853Z,154334.47
2018-06-11T07:42:01.884Z,153530.39
2018-06-11T07:44:33.943Z,153182.36
2018-06-11T07:47:05.336Z,153478.66
2018-06-11T07:49:36.437Z,153705.73
2018-06-11T07:52:07.342Z,153713.30
2018-06-11T07:54:38.431Z,153440.88
2018-06-11T07:57:12.695Z,153490.05
2018-06-11T07:59:43.666Z,153459.77
2018-06-11T08:02:14.497Z,153225.25
2018-06-11T08:04:45.387Z,152803.13
2018-06-11T08:07:16.352Z,153139.52
2018-06-11T08:09:47.264Z,153113.09
2018-06-11T08:12:19.219Z,152849.72
2018-06-11T08:14:50.189Z,152274.48
2018-06-11T08:17:21.300Z,151929.94
2018-06-11T08:19:52.525Z,151593.17
2018-06-11T08:22:23.640Z,151383.52
2018-06-11T08:24:54.625Z,151328.22
2018-06-11T08:27:27.372Z,151137.48
2018-06-11T08:29:58.096Z,151185.14
2018-06-11T08:32:29.212Z,151003.30
2018-06-11T08:35:00.000Z,150912.97
2018-06-11T08:37:31.713Z,150901.66
2018-06-11T08:40:02.685Z,150923.00
2018-06-11T08:42:33.900Z,150820.22
2018-06-11T08:45:05.042Z,150737.45
2018-06-11T08:47:36.964Z,150778.81
2018-06-11T08:50:08.303Z,150744.97
2018-06-11T08:52:39.257Z,150791.33
2018-06-11T08:55:10.379Z,150808.91
2018-06-11T08:57:43.120Z,150856.53
2018-06-11T09:00:14.349Z,150872.86
2018-06-11T09:02:47.377Z,150823.98
2018-06-11T09:05:18.284Z,150817.72
2018-06-11T09:07:49.383Z,150867.84
2018-06-11T09:10:20.447Z,150837.75
2018-06-11T09:12:53.080Z,150761.23
2018-06-11T09:15:23.997Z,150758.73
2018-06-11T09:17:55.290Z,150857.78
2018-06-11T09:20:26.414Z,150815.22
2018-06-11T09:22:59.966Z,150736.20
2018-06-11T09:25:30.927Z,150780.06
2018-06-11T09:28:07.702Z,150734.95
2018-06-11T09:30:38.650Z,150812.72
2018-06-11T09:33:09.592Z,150832.75
2018-06-11T09:35:40.506Z,150811.47
2018-06-11T09:38:11.441Z,150821.47
2018-06-11T09:40:42.548Z,150805.16
2018-06-11T09:45:49.750Z,150749.97
2018-06-11T09:48:20.745Z,150684.84
2018-06-11T09:50:52.646Z,150679.83
2018-06-11T09:53:23.651Z,150739.95
2018-06-11T09:55:55.597Z,150800.14
2018-06-11T09:58:26.527Z,150847.77
2018-06-11T10:00:58.481Z,150891.64
2018-06-11T10:03:29.443Z,150902.91
2018-06-11T10:06:07.346Z,150803.91
2018-06-11T10:08:38.110Z,150762.50
2018-06-11T10:11:09.910Z,150813.97
2018-06-11T10:13:41.041Z,150797.64
2018-06-11T10:18:47.894Z,150751.22
2018-06-11T10:21:18.519Z,150839.00
2018-06-11T10:23:52.437Z,150825.23
2018-06-11T10:26:23.160Z,150782.56
2018-06-11T10:28:53.860Z,150762.50
2018-06-11T10:31:24.366Z,150775.06
2018-06-11T10:33:56.309Z,150775.06
2018-06-11T10:36:27.380Z,150711.13
2018-06-11T10:38:58.520Z,150643.44
2018-06-11T10:41:29.578Z,150753.73
2018-06-11T10:44:00.636Z,150688.59
2018-06-11T10:46:31.716Z,150734.95
2018-06-11T10:49:10.034Z,150781.31
2018-06-11T10:51:41.013Z,150746.22
2018-06-11T10:54:13.758Z,150684.84
2018-06-11T10:56:44.775Z,150724.94
2018-06-11T10:59:21.292Z,150763.80
2018-06-11T11:01:52.592Z,150767.55
2018-06-11T11:04:25.641Z,150786.33
2018-06-11T11:06:56.624Z,150800.14
2018-06-11T11:09:28.612Z,150788.83
2018-06-11T11:11:59.559Z,150785.08
2018-06-11T11:14:32.202Z,150777.56
2018-06-11T11:17:03.199Z,150748.72
2018-06-11T11:19:34.271Z,150805.16
2018-06-11T11:22:05.230Z,150828.98
2018-06-11T11:24:36.388Z,150820.22
2018-06-11T11:27:07.553Z,150791.33
2018-06-11T11:29:39.527Z,150759.98
2018-06-11T11:32:10.538Z,150742.47
2018-06-11T11:34:44.039Z,150762.50
2018-06-11T11:37:14.923Z,150777.56
2018-06-11T11:39:48.522Z,150788.83
2018-06-11T11:42:19.508Z,150724.94
2018-06-11T11:44:53.003Z,150622.17
2018-06-11T11:47:23.965Z,150651.00
2018-06-11T11:52:31.321Z,150623.42
2018-06-11T11:55:02.528Z,150613.36
2018-06-11T11:57:34.285Z,150559.52
2018-06-11T12:00:05.717Z,150559.52
2018-06-11T12:02:38.720Z,150567.02
2018-06-11T12:05:10.436Z,150494.41
2018-06-11T12:07:41.694Z,150526.98
2018-06-11T12:10:13.456Z,150550.75
2018-06-11T12:12:44.599Z,150529.48
2018-06-11T12:15:15.696Z,150557.02
2018-06-11T12:17:46.720Z,150540.75
2018-06-11T12:20:17.546Z,150562.02
2018-06-11T12:22:49.512Z,150542.00
2018-06-11T12:25:20.290Z,150500.66
2018-06-11T12:27:51.273Z,150409.22
2018-06-11T12:30:22.164Z,150430.47
2018-06-11T12:38:06.590Z,150456.78
2018-06-11T12:40:37.304Z,150439.28
2018-06-11T12:43:09.633Z,150415.47
2018-06-11T12:45:40.722Z,150374.14
2018-06-11T12:48:11.801Z,150385.45
2018-06-11T12:50:42.685Z,150409.22
2018-06-11T12:53:13.696Z,150424.22
2018-06-11T12:55:45.579Z,150436.78
2018-06-11T12:58:16.765Z,150404.20
2018-06-11T13:00:50.068Z,150375.39
2018-06-11T13:03:21.214Z,150381.66
2018-06-11T13:05:51.995Z,150371.64
2018-06-11T13:08:23.809Z,150336.63
2018-06-11T13:10:55.077Z,150354.14
2018-06-11T13:13:26.169Z,150350.38
2018-06-11T13:15:57.114Z,150367.89
2018-06-11T13:18:28.083Z,150396.70
2018-06-11T13:20:59.246Z,150396.70
2018-06-11T13:23:32.651Z,150275.22
2018-06-11T13:26:03.901Z,150306.53
2018-06-11T13:28:34.988Z,150347.89
2018-06-11T13:31:06.111Z,150344.12
2018-06-11T13:33:37.337Z,150311.53
2018-06-11T13:36:08.286Z,150263.97
2018-06-11T13:41:16.252Z,150218.91
2018-06-11T13:43:47.538Z,150171.31
2018-06-11T13:46:18.576Z,150137.53
2018-06-11T13:48:49.791Z,150175.06
2018-06-11T13:51:20.857Z,150198.91
2018-06-11T13:53:51.683Z,150216.41
2018-06-11T13:56:24.385Z,150215.16
2018-06-11T13:58:55.505Z,150230.16
2018-06-11T14:01:26.605Z,150221.41
2018-06-11T14:03:57.646Z,150220.16
2018-06-11T14:06:31.064Z,150191.38
2018-06-11T14:09:02.078Z,150181.36
2018-06-11T14:11:34.127Z,150207.66
2018-06-11T14:14:05.205Z,150202.66
2018-06-11T14:16:39.065Z,150217.66
2018-06-11T14:19:10.069Z,150221.41
2018-06-11T14:21:42.675Z,150225.17
2018-06-11T14:24:13.765Z,150197.66
2018-06-11T14:26:44.677Z,150217.66
2018-06-11T14:29:16.530Z,150168.81
2018-06-11T14:31:50.076Z,150140.02
2018-06-11T14:34:21.118Z,150120.03
2018-06-11T14:39:28.742Z,150133.78
2018-06-11T14:41:59.689Z,150133.78
2018-06-11T14:44:30.709Z,150113.78
2018-06-11T14:47:01.670Z,150088.73
2018-06-11T14:49:32.702Z,150097.48
2018-06-11T14:52:03.905Z,150116.28
2018-06-11T14:54:36.489Z,150086.23
2018-06-11T14:57:07.555Z,150057.50
2018-06-11T14:59:39.343Z,149967.39
2018-06-11T15:02:12.935Z,150068.75
2018-06-11T15:04:44.010Z,150091.23
2018-06-11T15:07:14.811Z,150042.45
2018-06-11T15:09:45.843Z,150056.25
2018-06-11T15:12:16.559Z,150056.25
2018-06-11T15:14:47.728Z,150028.72
2018-06-11T15:17:19.450Z,150021.22
2018-06-11T15:19:51.153Z,150022.47
2018-06-11T15:22:22.376Z,150027.47
2018-06-11T15:24:55.802Z,150008.67
2018-06-11T15:27:26.942Z,150012.47
2018-06-11T15:29:58.052Z,149959.91
2018-06-11T15:32:28.885Z,149958.66
2018-06-11T15:35:00.817Z,149976.14
2018-06-11T15:37:32.793Z,149961.16
2018-06-11T15:40:03.848Z,149963.66
2018-06-11T15:42:35.440Z,149956.11
2018-06-11T15:45:07.470Z,149972.39
2018-06-11T15:47:38.286Z,149952.36
2018-06-11T15:50:09.351Z,149957.41
2018-06-11T15:52:40.505Z,149933.62
2018-06-11T15:55:12.410Z,149918.63
2018-06-11T15:57:43.375Z,149896.09
2018-06-11T16:02:50.610Z,149817.33
2018-06-11T16:05:21.797Z,149778.56
2018-06-11T16:07:54.051Z,149817.33
2018-06-11T16:10:25.266Z,149841.05
2018-06-11T16:12:58.017Z,149843.59
2018-06-11T16:15:29.207Z,149798.55
2018-06-11T16:18:00.224Z,149798.55
2018-06-11T16:20:31.383Z,149793.55
2018-06-11T16:23:02.532Z,149766.03
2018-06-11T16:25:33.760Z,149693.58
2018-06-11T16:28:07.752Z,149711.05
2018-06-11T16:30:38.665Z,149721.08
2018-06-11T16:33:09.616Z,149686.08
2018-06-11T16:35:40.676Z,149711.05
2018-06-11T16:38:12.700Z,149692.33
2018-06-11T16:40:43.763Z,149657.28
2018-06-11T16:43:16.008Z,149677.34
2018-06-11T16:45:47.256Z,149676.09
2018-06-11T16:48:19.844Z,149661.03
2018-06-11T16:50:50.835Z,149621.03
2018-06-11T16:53:22.856Z,149612.30
2018-06-11T16:55:53.748Z,149558.58
2018-06-11T16:58:24.964Z,149573.56
2018-06-11T17:00:55.965Z,149581.09
2018-06-11T17:03:29.326Z,149581.09
2018-06-11T17:06:00.316Z,149556.09
2018-06-11T17:08:32.292Z,149494.91
2018-06-11T17:11:03.525Z,149486.12
2018-06-11T17:13:34.641Z,149462.36
2018-06-11T17:16:05.518Z,149476.09
2018-06-11T17:18:39.327Z,149433.63
2018-06-11T17:21:10.203Z,149383.69
2018-06-11T17:23:41.145Z,149374.95
2018-06-11T17:26:11.926Z,149363.72
2018-06-11T17:28:43.772Z,149366.22
2018-06-11T17:31:14.623Z,149361.23
2018-06-11T17:33:45.801Z,149310.05
2018-06-11T17:36:16.991Z,149277.53
2018-06-11T17:38:48.970Z,149278.78
2018-06-11T17:41:20.234Z,149305.02
2018-06-11T17:43:51.330Z,149297.53
2018-06-11T17:46:22.462Z,149296.28
2018-06-11T17:48:53.406Z,149297.53
2018-06-11T17:51:24.489Z,149296.28
2018-06-11T17:53:57.069Z,149267.56
2018-06-11T17:56:28.353Z,149256.34
2018-06-11T17:58:59.581Z,149251.34
2018-06-11T18:01:30.891Z,149236.34
2018-06-11T18:04:02.016Z,149233.84
2018-06-11T18:06:33.000Z,149215.14
2018-06-11T18:09:04.900Z,149208.91
2018-06-11T18:11:36.074Z,149196.39
2018-06-11T18:14:07.189Z,149181.44
2018-06-11T18:16:37.969Z,149159.00
2018-06-11T18:19:11.529Z,149150.22
2018-06-11T18:21:42.533Z,149114.03
2018-06-11T18:24:13.497Z,149095.28
2018-06-11T18:26:44.467Z,149087.81
2018-06-11T18:29:17.553Z,149061.64
2018-06-11T18:31:48.686Z,149049.12
2018-06-11T18:34:19.718Z,149046.64
2018-06-11T18:36:50.799Z,149026.69
2018-06-11T18:39:23.488Z,149015.48
2018-06-11T18:41:54.516Z,148988.03
2018-06-11T18:44:26.484Z,148964.36
2018-06-11T18:46:57.567Z,148971.83
2018-06-11T18:49:30.427Z,148955.59
2018-06-11T18:52:01.476Z,148936.89
2018-06-11T18:54:32.602Z,148939.39
2018-06-11T18:57:04.454Z,148921.95
2018-06-11T18:59:35.552Z,148910.64
2018-06-11T19:02:06.582Z,148886.97
2018-06-11T19:04:38.486Z,148862.02
2018-06-11T19:07:14.054Z,148855.78
2018-06-11T19:09:47.573Z,148849.56
2018-06-11T19:12:18.857Z,148830.87
2018-06-11T19:14:51.552Z,148825.91
2018-06-11T19:17:22.386Z,148837.11
2018-06-11T19:19:55.382Z,148842.09
2018-06-11T19:22:26.428Z,148838.36
2018-06-11T19:24:59.881Z,148829.63
2018-06-11T19:27:31.020Z,148824.66
2018-06-11T19:30:01.961Z,148819.67
2018-06-11T19:32:33.040Z,148825.91
2018-06-11T19:35:04.335Z,148820.92
2018-06-11T19:37:35.435Z,148793.47
2018-06-11T19:40:09.094Z,148794.72
2018-06-11T19:42:40.109Z,148794.72
2018-06-11T19:45:11.276Z,148784.75
2018-06-11T19:47:42.842Z,148797.22
2018-06-11T19:50:13.946Z,148778.53
2018-06-11T19:52:44.811Z,148777.28
2018-06-11T19:55:15.984Z,148783.52
2018-06-11T19:57:47.165Z,148764.78
2018-06-11T20:00:18.363Z,148762.30
2018-06-11T20:02:49.587Z,148744.88
2018-06-11T20:05:21.331Z,148738.64
2018-06-11T20:07:52.426Z,148726.19
2018-06-11T20:10:23.758Z,148708.66
2018-06-11T20:12:54.886Z,148717.42
2018-06-11T20:15:26.041Z,148724.91
2018-06-11T20:17:57.113Z,148718.67
2018-06-11T20:20:29.140Z,148729.92
2018-06-11T20:23:00.197Z,148719.92
2018-06-11T20:25:31.213Z,148717.42
2018-06-11T20:28:02.351Z,148719.92
2018-06-11T20:30:33.634Z,148714.89
2018-06-11T20:33:05.558Z,148709.91
2018-06-11T20:35:37.418Z,148704.92
2018-06-11T20:38:08.571Z,148709.91
2018-06-11T20:40:45.827Z,148724.91
2018-06-11T20:43:16.952Z,148731.17
2018-06-11T20:45:54.218Z,148704.92
2018-06-11T20:48:25.161Z,148699.95
2018-06-11T20:50:56.284Z,148699.95
2018-06-11T20:53:27.630Z,148683.77
2018-06-11T20:55:58.736Z,148696.22
2018-06-11T20:58:29.818Z,148704.92
2018-06-11T21:03:37.651Z,148703.69
2018-06-11T21:06:10.487Z,148716.13
2018-06-11T21:08:42.442Z,148719.92
2018-06-11T21:11:13.317Z,148714.89
2018-06-11T21:16:21.828Z,148686.25
2018-06-11T21:18:52.846Z,148706.17
2018-06-11T21:21:23.848Z,148714.89
2018-06-11T21:23:54.843Z,148711.16
2018-06-11T21:26:26.131Z,148693.72
2018-06-11T21:28:57.272Z,148689.98
2018-06-11T21:31:28.224Z,148697.47
2018-06-11T21:33:59.412Z,148704.92
2018-06-11T21:36:30.282Z,148665.05
2018-06-11T21:39:02.185Z,148682.53
2018-06-11T21:41:33.196Z,148699.95
2018-06-11T21:44:07.654Z,148685.00
2018-06-11T21:46:39.054Z,148676.25
2018-06-11T21:49:10.027Z,148661.31
2018-06-11T21:51:40.961Z,148665.05
2018-06-11T21:54:12.989Z,148693.72
2018-06-11T21:56:43.984Z,148692.48
2018-06-11T21:59:15.925Z,148693.72
2018-06-11T22:01:46.963Z,148662.56
2018-06-11T22:04:20.889Z,148677.50
2018-06-11T22:06:51.860Z,148701.19
2018-06-11T22:09:24.829Z,148706.17
2018-06-11T22:11:55.978Z,148706.17
2018-06-11T22:17:03.678Z,148689.98
2018-06-11T22:19:34.794Z,148692.48
2018-06-11T22:22:08.573Z,148689.98
2018-06-11T22:24:39.676Z,148694.97
2018-06-11T22:27:10.777Z,148716.13
2018-06-11T22:29:41.630Z,148731.17
2018-06-11T22:32:12.615Z,148734.91
2018-06-11T22:34:43.546Z,148737.39
2018-06-11T22:37:14.723Z,148707.42
2018-06-11T22:39:45.618Z,148698.70
2018-06-11T22:42:16.471Z,148672.52
2018-06-11T22:44:47.468Z,148692.48
2018-06-11T22:47:18.598Z,148711.16
2018-06-11T22:49:49.717Z,148749.84
2018-06-11T22:52:20.844Z,148743.63
2018-06-11T22:54:51.921Z,148754.83
2018-06-11T22:57:23.832Z,148757.31
2018-06-11T22:59:54.855Z,148757.31
2018-06-11T23:02:28.272Z,148773.55
2018-06-11T23:04:59.419Z,148790.98
2018-06-11T23:07:30.579Z,148800.94
2018-06-11T23:10:01.695Z,148814.64
2018-06-11T23:12:33.459Z,148837.11
2018-06-11T23:15:04.276Z,148839.59
2018-06-11T23:17:35.305Z,148837.11
2018-06-11T23:20:06.069Z,148827.16
2018-06-11T23:22:37.719Z,148823.41
2018-06-11T23:25:08.556Z,148817.13
2018-06-11T23:27:41.919Z,148789.73
2018-06-11T23:30:12.970Z,148773.55
2018-06-11T23:32:45.714Z,148771.02
2018-06-11T23:35:16.670Z,148777.28
2018-06-11T23:37:48.415Z,148776.05
2018-06-11T23:40:19.280Z,148767.28
2018-06-11T23:42:50.303Z,148761.05
2018-06-11T23:45:21.280Z,148779.78
2018-06-11T23:47:52.301Z,148787.25
2018-06-11T23:50:23.088Z,148753.58
2018-06-11T23:52:55.068Z,148728.69
2018-06-11T23:55:26.021Z,148728.69
2018-06-11T23:58:01.868Z,148737.39
